createdAt,value
2017-06-20T00:00:16.863Z,20.30
2017-06-20T00:02:43.250Z,20.30
2017-06-20T00:05:09.672Z,20.30
2017-06-20T00:07:36.074Z,20.30
2017-06-20T00:10:03.214Z,20.10
2017-06-20T00:12:30.420Z,20.10
2017-06-20T00:14:56.810Z,20.20
2017-06-20T00:17:23.268Z,20.10
2017-06-20T00:19:55.324Z,20.00
2017-06-20T00:22:21.720Z,20.00
2017-06-20T00:24:48.103Z,20.10
2017-06-20T00:27:20.626Z,20.10
2017-06-20T00:29:47.004Z,20.00
2017-06-20T00:32:13.402Z,19.90
2017-06-20T00:34:39.787Z,19.90
2017-06-20T00:37:06.195Z,19.80
2017-06-20T00:39:33.355Z,19.90
2017-06-20T00:42:00.160Z,19.90
2017-06-20T00:44:26.514Z,19.70
2017-06-20T00:46:52.944Z,19.70
2017-06-20T00:49:19.461Z,19.60
2017-06-20T00:51:47.825Z,19.50
2017-06-20T00:54:14.245Z,19.50
2017-06-20T00:56:40.662Z,19.50
2017-06-20T00:59:07.308Z,19.50
2017-06-20T01:01:33.776Z,19.50
2017-06-20T01:04:00.232Z,19.40
2017-06-20T01:06:26.641Z,19.40
2017-06-20T01:08:53.036Z,19.40
2017-06-20T01:11:19.425Z,19.20
2017-06-20T01:13:45.861Z,19.30
2017-06-20T01:16:12.287Z,19.30
2017-06-20T01:18:38.716Z,19.20
2017-06-20T01:21:05.157Z,19.20
2017-06-20T01:23:31.585Z,19.20
2017-06-20T01:25:58.004Z,19.20
2017-06-20T01:28:24.442Z,19.20
2017-06-20T01:30:50.916Z,19.10
2017-06-20T01:33:17.340Z,19.10
2017-06-20T01:35:43.767Z,19.10
2017-06-20T01:38:10.300Z,19.10
2017-06-20T01:40:36.741Z,19.10
2017-06-20T01:43:03.176Z,19.00
2017-06-20T01:45:29.649Z,19.00
2017-06-20T01:47:56.135Z,19.00
2017-06-20T01:50:22.578Z,18.90
2017-06-20T01:52:49.029Z,19.00
2017-06-20T01:55:15.451Z,19.00
2017-06-20T01:57:41.904Z,18.90
2017-06-20T02:00:08.342Z,18.90
2017-06-20T02:02:34.792Z,18.90
2017-06-20T02:05:01.219Z,18.90
2017-06-20T02:07:28.406Z,18.90
2017-06-20T02:09:54.843Z,18.80
2017-06-20T02:12:21.287Z,18.90
2017-06-20T02:14:47.696Z,18.80
2017-06-20T02:17:14.091Z,18.80
2017-06-20T02:19:41.256Z,18.80
2017-06-20T02:22:07.698Z,18.80
2017-06-20T02:24:34.109Z,18.70
2017-06-20T02:27:01.773Z,18.80
2017-06-20T02:29:28.181Z,18.80
2017-06-20T02:31:54.624Z,18.70
2017-06-20T02:34:21.053Z,18.70
2017-06-20T02:36:47.503Z,18.70
2017-06-20T02:39:13.887Z,18.70
2017-06-20T02:41:40.288Z,18.60
2017-06-20T02:44:06.700Z,18.70
2017-06-20T02:46:33.148Z,18.70
2017-06-20T02:48:59.585Z,18.70
2017-06-20T02:51:26.036Z,18.50
2017-06-20T02:53:52.446Z,18.60
2017-06-20T02:56:18.881Z,18.60
2017-06-20T02:58:45.459Z,18.60
2017-06-20T03:01:11.836Z,18.60
2017-06-20T03:03:39.020Z,18.50
2017-06-20T03:06:05.423Z,18.50
2017-06-20T03:08:31.848Z,18.50
2017-06-20T03:11:11.128Z,18.50
2017-06-20T03:13:37.578Z,18.50
2017-06-20T03:16:04.016Z,18.40
2017-06-20T03:18:30.497Z,18.40
2017-06-20T03:20:56.893Z,18.40
2017-06-20T03:23:23.308Z,18.40
2017-06-20T03:25:49.749Z,18.30
2017-06-20T03:28:16.189Z,18.40
2017-06-20T03:30:42.632Z,18.40
2017-06-20T03:33:09.036Z,18.40
2017-06-20T03:35:35.480Z,18.40
2017-06-20T03:38:01.920Z,18.30
2017-06-20T03:40:28.346Z,18.40
2017-06-20T03:42:54.747Z,18.30
2017-06-20T03:45:21.209Z,18.30
2017-06-20T03:47:47.738Z,18.30
2017-06-20T03:50:14.180Z,18.30
2017-06-20T03:52:40.592Z,18.30
2017-06-20T03:55:07.020Z,18.10
2017-06-20T03:57:33.402Z,18.30
2017-06-20T03:59:59.788Z,18.30
2017-06-20T04:02:26.168Z,18.30
2017-06-20T04:04:52.578Z,18.30
2017-06-20T04:07:18.996Z,18.30
2017-06-20T04:09:45.451Z,18.30
2017-06-20T04:12:11.868Z,18.30
2017-06-20T04:14:38.314Z,18.30
2017-06-20T04:17:04.744Z,18.30
2017-06-20T04:19:31.204Z,18.30
2017-06-20T04:21:57.654Z,18.40
2017-06-20T04:24:24.093Z,18.20
2017-06-20T04:26:50.547Z,18.40
2017-06-20T04:29:16.968Z,18.50
2017-06-20T04:31:43.419Z,18.50
2017-06-20T04:34:09.911Z,18.60
2017-06-20T04:36:43.271Z,18.60
2017-06-20T04:39:09.669Z,18.60
2017-06-20T04:41:36.104Z,18.70
2017-06-20T04:44:02.523Z,18.80
2017-06-20T04:46:28.944Z,18.90
2017-06-20T04:48:55.356Z,18.90
2017-06-20T04:51:21.745Z,19.20
2017-06-20T04:53:48.179Z,19.00
2017-06-20T04:56:14.592Z,19.00
2017-06-20T04:58:41.040Z,19.00
2017-06-20T05:01:07.460Z,19.10
2017-06-20T05:03:34.595Z,19.20
2017-06-20T05:06:00.963Z,19.20
2017-06-20T05:08:28.164Z,19.40
2017-06-20T05:10:54.563Z,19.80
2017-06-20T05:13:20.972Z,19.50
2017-06-20T05:15:47.503Z,19.50
2017-06-20T05:18:13.895Z,19.60
2017-06-20T05:20:42.025Z,19.50
2017-06-20T05:23:08.423Z,19.50
2017-06-20T05:25:34.832Z,19.50
2017-06-20T05:28:01.237Z,19.60
2017-06-20T05:30:27.635Z,19.60
2017-06-20T05:32:54.148Z,19.60
2017-06-20T05:35:20.611Z,19.70
2017-06-20T05:37:47.055Z,19.90
2017-06-20T05:40:13.908Z,20.10
2017-06-20T05:42:40.334Z,20.30
2017-06-20T05:45:06.736Z,20.40
2017-06-20T05:47:33.975Z,20.50
2017-06-20T05:50:00.380Z,20.50
2017-06-20T05:52:26.755Z,20.70
2017-06-20T05:54:53.148Z,20.80
2017-06-20T05:57:19.896Z,20.90
2017-06-20T05:59:46.301Z,21.10
2017-06-20T06:02:12.893Z,21.30
2017-06-20T06:04:39.317Z,21.70
2017-06-20T06:07:05.745Z,21.70
2017-06-20T06:09:32.164Z,21.70
2017-06-20T06:11:58.602Z,21.70
2017-06-20T06:14:24.976Z,21.70
2017-06-20T06:16:51.385Z,21.90
2017-06-20T06:19:17.801Z,22.10
2017-06-20T06:21:44.164Z,22.20
2017-06-20T06:24:10.564Z,22.30
2017-06-20T06:26:36.965Z,22.20
2017-06-20T06:29:03.784Z,22.30
2017-06-20T06:31:30.264Z,22.10
2017-06-20T06:33:57.417Z,22.50
2017-06-20T06:36:23.804Z,22.50
2017-06-20T06:38:51.424Z,22.60
2017-06-20T06:41:17.816Z,22.80
2017-06-20T06:43:44.208Z,22.70
2017-06-20T06:46:10.599Z,22.80
2017-06-20T06:48:38.844Z,22.80
2017-06-20T06:51:05.256Z,22.90
2017-06-20T06:53:31.721Z,23.00
2017-06-20T06:55:58.113Z,23.20
2017-06-20T06:58:24.970Z,23.20
2017-06-20T07:00:51.383Z,23.40
2017-06-20T07:03:17.800Z,23.40
2017-06-20T07:05:44.212Z,23.60
2017-06-20T07:08:11.385Z,23.90
2017-06-20T07:10:37.820Z,23.80
2017-06-20T07:13:04.248Z,23.90
2017-06-20T07:15:31.432Z,24.20
2017-06-20T07:17:57.840Z,24.20
2017-06-20T07:20:24.250Z,24.30
2017-06-20T07:22:56.000Z,24.40
2017-06-20T07:25:22.490Z,24.40
2017-06-20T07:27:48.910Z,24.70
2017-06-20T07:30:15.361Z,24.70
2017-06-20T07:32:42.838Z,24.70
2017-06-20T07:35:09.253Z,24.70
2017-06-20T07:37:40.011Z,24.80
2017-06-20T07:40:06.452Z,25.00
2017-06-20T07:42:32.904Z,25.20
2017-06-20T07:44:59.329Z,25.30
2017-06-20T07:47:25.750Z,25.40
2017-06-20T07:49:52.390Z,25.20
2017-06-20T07:52:19.220Z,25.50
2017-06-20T07:54:45.624Z,25.80
2017-06-20T07:57:12.093Z,26.00
2017-06-20T07:59:38.508Z,26.20
2017-06-20T08:02:04.869Z,26.30
2017-06-20T08:04:31.262Z,26.50
2017-06-20T08:06:57.653Z,26.50
2017-06-20T08:09:24.041Z,26.80
2017-06-20T08:11:50.435Z,27.20
2017-06-20T08:14:17.579Z,28.70
2017-06-20T08:16:43.965Z,28.60
2017-06-20T08:19:10.544Z,30.40
2017-06-20T08:21:42.984Z,31.90
2017-06-20T08:24:09.403Z,32.70
2017-06-20T08:26:35.848Z,33.20
2017-06-20T08:29:02.249Z,35.10
2017-06-20T08:31:28.682Z,35.10
2017-06-20T08:33:55.131Z,35.00
2017-06-20T08:36:21.585Z,35.70
2017-06-20T08:38:48.001Z,36.70
2017-06-20T08:41:14.454Z,36.70
2017-06-20T08:43:40.877Z,37.70
2017-06-20T08:46:08.005Z,37.20
2017-06-20T08:48:35.171Z,37.50
2017-06-20T08:51:01.604Z,37.50
2017-06-20T08:53:28.060Z,36.80
2017-06-20T08:55:54.498Z,37.30
2017-06-20T08:58:20.894Z,36.90
2017-06-20T09:00:47.287Z,36.20
2017-06-20T09:03:13.711Z,34.30
2017-06-20T09:05:40.103Z,33.10
2017-06-20T09:08:06.557Z,32.20
2017-06-20T09:10:32.995Z,31.50
2017-06-20T09:12:59.396Z,30.80
2017-06-20T09:15:25.796Z,30.30
2017-06-20T09:17:52.207Z,30.00
2017-06-20T09:20:18.628Z,29.70
2017-06-20T09:22:45.047Z,29.60
2017-06-20T09:25:12.176Z,29.40
2017-06-20T09:27:38.573Z,29.40
2017-06-20T09:30:05.004Z,29.40
2017-06-20T09:32:31.435Z,29.40
2017-06-20T09:34:57.852Z,29.30
2017-06-20T09:37:24.260Z,29.40
2017-06-20T09:39:50.695Z,29.30
2017-06-20T09:42:17.101Z,29.20
2017-06-20T09:44:43.536Z,29.30
2017-06-20T09:47:09.992Z,29.30
2017-06-20T09:49:36.504Z,29.40
2017-06-20T09:52:02.901Z,29.40
2017-06-20T09:54:29.309Z,29.30
2017-06-20T09:56:56.543Z,29.40
2017-06-20T09:59:22.914Z,29.40
2017-06-20T10:01:49.315Z,29.40
2017-06-20T10:04:15.720Z,29.30
2017-06-20T10:06:42.158Z,29.40
2017-06-20T10:09:08.601Z,29.50
2017-06-20T10:11:35.001Z,29.60
2017-06-20T10:14:01.406Z,29.60
2017-06-20T10:16:27.761Z,29.40
2017-06-20T10:18:54.178Z,29.70
2017-06-20T10:21:20.584Z,29.70
2017-06-20T10:23:47.007Z,29.60
2017-06-20T10:26:13.463Z,29.70
2017-06-20T10:28:39.917Z,29.80
2017-06-20T10:31:06.307Z,30.00
2017-06-20T10:33:32.728Z,29.80
2017-06-20T10:35:59.135Z,29.90
2017-06-20T10:38:25.524Z,29.90
2017-06-20T10:40:51.930Z,30.10
2017-06-20T10:43:18.357Z,30.00
2017-06-20T10:45:44.891Z,29.90
2017-06-20T10:48:11.804Z,29.90
2017-06-20T10:50:38.225Z,29.80
2017-06-20T10:53:04.601Z,29.90
2017-06-20T10:55:31.049Z,30.10
2017-06-20T10:57:57.441Z,30.10
2017-06-20T11:00:24.596Z,30.10
2017-06-20T11:02:50.997Z,30.00
2017-06-20T11:05:17.384Z,29.90
2017-06-20T11:07:43.791Z,29.90
2017-06-20T11:10:10.175Z,29.90
2017-06-20T11:12:36.588Z,29.90
2017-06-20T11:15:02.996Z,30.00
2017-06-20T11:17:29.389Z,30.10
2017-06-20T11:19:55.876Z,30.20
2017-06-20T11:22:28.386Z,30.50
2017-06-20T11:24:54.792Z,30.50
2017-06-20T11:27:21.180Z,30.50
2017-06-20T11:29:47.582Z,30.50
2017-06-20T11:32:13.972Z,30.50
2017-06-20T11:34:40.366Z,30.30
2017-06-20T11:37:07.486Z,30.60
2017-06-20T11:39:33.897Z,30.60
2017-06-20T11:42:00.627Z,30.90
2017-06-20T11:44:27.077Z,30.80
2017-06-20T11:46:53.464Z,30.80
2017-06-20T11:49:19.888Z,30.90
2017-06-20T11:51:46.292Z,30.90
2017-06-20T11:54:12.713Z,30.70
2017-06-20T11:56:39.137Z,30.80
2017-06-20T11:59:05.699Z,30.80
2017-06-20T12:01:39.132Z,30.90
2017-06-20T12:04:05.564Z,30.90
2017-06-20T12:06:32.841Z,30.70
2017-06-20T12:08:59.340Z,30.70
2017-06-20T12:11:25.797Z,30.90
2017-06-20T12:13:56.512Z,31.00
2017-06-20T12:16:22.925Z,30.90
2017-06-20T12:18:49.364Z,30.90
2017-06-20T12:21:15.790Z,30.80
2017-06-20T12:23:42.292Z,30.80
2017-06-20T12:26:08.773Z,30.60
2017-06-20T12:28:43.692Z,30.50
2017-06-20T12:31:10.181Z,30.50
2017-06-20T12:33:36.609Z,30.30
2017-06-20T12:36:03.766Z,30.00
2017-06-20T12:38:30.186Z,30.00
2017-06-20T12:41:02.837Z,30.20
2017-06-20T12:43:29.256Z,30.40
2017-06-20T12:45:56.428Z,30.50
2017-06-20T12:48:22.847Z,30.50
2017-06-20T12:50:49.321Z,30.50
2017-06-20T12:53:16.489Z,30.70
2017-06-20T12:58:18.902Z,30.60
2017-06-20T13:00:46.099Z,30.70
2017-06-20T13:03:12.495Z,30.60
2017-06-20T13:05:38.921Z,30.70
2017-06-20T13:08:05.352Z,30.60
2017-06-20T13:10:37.787Z,30.70
2017-06-20T13:13:04.228Z,30.70
2017-06-20T13:15:30.636Z,30.70
2017-06-20T13:17:57.042Z,30.60
2017-06-20T13:20:24.144Z,30.60
2017-06-20T13:22:51.280Z,30.50
2017-06-20T13:25:21.573Z,30.50
2017-06-20T13:27:48.761Z,30.60
2017-06-20T13:30:15.153Z,30.60
2017-06-20T13:32:41.553Z,30.50
2017-06-20T13:35:07.956Z,30.50
2017-06-20T13:37:35.113Z,30.60
2017-06-20T13:40:01.495Z,30.60
2017-06-20T13:42:29.541Z,30.80
2017-06-20T13:44:55.964Z,30.80
2017-06-20T13:47:22.373Z,30.60
2017-06-20T13:49:48.866Z,30.70
2017-06-20T13:52:15.247Z,30.70
2017-06-20T13:54:41.657Z,30.60
2017-06-20T13:57:11.828Z,30.50
2017-06-20T13:59:38.244Z,30.40
2017-06-20T14:02:04.656Z,30.40
2017-06-20T14:04:31.110Z,30.40
2017-06-20T14:06:57.517Z,30.40
2017-06-20T14:09:23.935Z,30.50
2017-06-20T14:11:54.864Z,30.60
2017-06-20T14:14:21.308Z,30.60
2017-06-20T14:16:47.720Z,30.60
2017-06-20T14:19:14.148Z,30.50
2017-06-20T14:21:40.595Z,30.50
2017-06-20T14:24:07.000Z,30.50
2017-06-20T14:26:33.388Z,30.30
2017-06-20T14:29:02.960Z,30.30
2017-06-20T14:31:29.501Z,30.30
2017-06-20T14:33:55.923Z,30.10
2017-06-20T14:36:22.353Z,30.10
2017-06-20T14:38:48.768Z,30.20
2017-06-20T14:41:15.199Z,30.30
2017-06-20T14:43:45.063Z,30.50
2017-06-20T14:46:11.535Z,30.70
2017-06-20T14:48:37.953Z,30.60
2017-06-20T14:51:04.368Z,30.50
2017-06-20T14:53:30.889Z,30.20
2017-06-20T14:55:57.403Z,30.20
2017-06-20T14:58:23.850Z,30.10
2017-06-20T15:00:50.368Z,30.20
2017-06-20T15:03:16.856Z,30.00
2017-06-20T15:05:43.309Z,29.60
2017-06-20T15:08:10.235Z,29.60
2017-06-20T15:10:36.652Z,29.70
2017-06-20T15:13:03.812Z,29.80
2017-06-20T15:15:30.232Z,29.80
2017-06-20T15:17:57.410Z,29.70
2017-06-20T15:20:23.893Z,29.60
2017-06-20T15:22:50.324Z,29.70
2017-06-20T15:25:16.940Z,29.80
2017-06-20T15:27:44.176Z,29.80
2017-06-20T15:30:11.008Z,29.80
2017-06-20T15:32:37.416Z,29.80
2017-06-20T15:35:03.840Z,29.70
2017-06-20T15:37:30.249Z,29.80
2017-06-20T15:39:57.188Z,29.90
2017-06-20T15:42:24.717Z,29.60
2017-06-20T15:44:51.205Z,29.70
2017-06-20T15:47:17.644Z,29.70
2017-06-20T15:49:44.834Z,29.40
2017-06-20T15:52:11.250Z,29.30
2017-06-20T15:54:37.733Z,29.40
2017-06-20T15:57:04.178Z,29.30
2017-06-20T15:59:30.595Z,29.30
2017-06-20T16:01:57.133Z,29.40
2017-06-20T16:04:23.540Z,29.30
2017-06-20T16:06:50.088Z,29.30
2017-06-20T16:09:16.530Z,29.20
2017-06-20T16:11:43.700Z,29.20
2017-06-20T16:14:10.241Z,29.20
2017-06-20T16:16:36.700Z,29.30
2017-06-20T16:19:03.228Z,29.30
2017-06-20T16:21:29.712Z,29.30
2017-06-20T16:23:56.140Z,29.30
2017-06-20T16:26:22.586Z,29.20
2017-06-20T16:28:49.827Z,29.10
2017-06-20T16:31:16.234Z,29.00
2017-06-20T16:33:42.750Z,29.00
2017-06-20T16:36:09.238Z,28.70
2017-06-20T16:38:35.686Z,28.70
2017-06-20T16:41:02.381Z,28.50
2017-06-20T16:43:29.078Z,28.30
2017-06-20T16:45:55.499Z,28.10
2017-06-20T16:48:22.300Z,28.00
2017-06-20T16:50:48.809Z,27.90
2017-06-20T16:53:15.240Z,27.90
2017-06-20T16:55:41.689Z,27.90
2017-06-20T16:58:08.102Z,28.00
2017-06-20T17:00:34.608Z,28.00
2017-06-20T17:03:01.832Z,28.00
2017-06-20T17:05:28.339Z,28.00
2017-06-20T17:07:55.477Z,28.00
2017-06-20T17:10:22.904Z,28.00
2017-06-20T17:12:49.292Z,28.00
2017-06-20T17:15:15.700Z,28.10
2017-06-20T17:17:42.115Z,28.00
2017-06-20T17:20:09.299Z,27.80
2017-06-20T17:22:35.753Z,27.80
2017-06-20T17:25:02.193Z,27.80
2017-06-20T17:27:28.577Z,27.80
2017-06-20T17:29:55.033Z,27.60
2017-06-20T17:32:21.448Z,27.60
2017-06-20T17:34:47.796Z,27.50
2017-06-20T17:37:14.191Z,27.50
2017-06-20T17:39:40.564Z,27.40
2017-06-20T17:42:07.355Z,27.30
2017-06-20T17:44:33.831Z,27.10
2017-06-20T17:47:00.220Z,27.00
2017-06-20T17:49:26.632Z,26.90
2017-06-20T17:51:53.080Z,26.80
2017-06-20T17:54:19.481Z,26.80
2017-06-20T17:56:45.853Z,26.80
2017-06-20T17:59:12.344Z,26.80
2017-06-20T18:01:38.789Z,26.80
2017-06-20T18:04:05.173Z,26.80
2017-06-20T18:06:31.612Z,26.70
2017-06-20T18:08:58.089Z,26.60
2017-06-20T18:11:24.564Z,26.60
2017-06-20T18:13:52.133Z,26.40
2017-06-20T18:16:18.596Z,26.40
2017-06-20T18:18:44.975Z,26.30
2017-06-20T18:21:11.372Z,26.20
2017-06-20T18:23:37.780Z,26.00
2017-06-20T18:26:04.288Z,26.10
2017-06-20T18:28:30.684Z,26.10
2017-06-20T18:30:57.088Z,26.10
2017-06-20T18:33:24.229Z,26.00
2017-06-20T18:35:50.633Z,26.00
2017-06-20T18:38:17.059Z,26.10
2017-06-20T18:40:43.568Z,26.00
2017-06-20T18:43:10.043Z,25.90
2017-06-20T18:45:36.936Z,25.70
2017-06-20T18:48:03.480Z,25.60
2017-06-20T18:50:29.970Z,25.50
2017-06-20T18:52:56.397Z,25.70
2017-06-20T18:55:24.003Z,25.30
2017-06-20T18:57:50.433Z,25.30
2017-06-20T19:00:16.936Z,25.30
2017-06-20T19:02:43.369Z,25.20
2017-06-20T19:05:09.873Z,25.20
2017-06-20T19:07:36.331Z,25.20
2017-06-20T19:10:02.831Z,25.20
2017-06-20T19:12:29.821Z,25.10
2017-06-20T19:14:56.638Z,25.00
2017-06-20T19:17:24.197Z,25.00
2017-06-20T19:19:50.924Z,24.90
2017-06-20T19:22:17.633Z,24.80
2017-06-20T19:24:44.949Z,24.50
2017-06-20T19:27:11.441Z,24.50
2017-06-20T19:29:37.883Z,24.40
2017-06-20T19:32:04.401Z,24.40
2017-06-20T19:34:31.604Z,24.30
2017-06-20T19:36:58.113Z,24.30
2017-06-20T19:39:24.516Z,24.30
2017-06-20T19:41:51.102Z,24.30
2017-06-20T19:44:17.991Z,24.20
2017-06-20T19:46:44.523Z,24.20
2017-06-20T19:49:11.213Z,24.10
2017-06-20T19:51:37.638Z,24.00
2017-06-20T19:54:04.193Z,23.90
2017-06-20T19:56:30.678Z,23.70
2017-06-20T19:58:57.092Z,23.60
2017-06-20T20:01:23.516Z,23.40
2017-06-20T20:03:50.661Z,23.30
2017-06-20T20:06:17.310Z,23.20
2017-06-20T20:08:44.941Z,23.20
2017-06-20T20:11:11.577Z,23.20
2017-06-20T20:13:38.183Z,23.20
2017-06-20T20:16:04.858Z,23.20
2017-06-20T20:18:31.542Z,23.20
2017-06-20T20:20:58.078Z,23.10
2017-06-20T20:23:24.624Z,23.10
2017-06-20T20:25:51.243Z,23.00
2017-06-20T20:28:17.833Z,23.00
2017-06-20T20:30:44.473Z,23.00
2017-06-20T20:33:10.960Z,22.80
2017-06-20T20:35:37.387Z,22.60
2017-06-20T20:38:03.797Z,22.80
2017-06-20T20:40:30.956Z,22.60
2017-06-20T20:42:58.135Z,22.60
2017-06-20T20:45:24.644Z,22.60
2017-06-20T20:47:51.912Z,22.60
2017-06-20T20:50:18.337Z,22.70
2017-06-20T20:52:44.825Z,22.80
2017-06-20T20:55:11.417Z,22.70
2017-06-20T20:57:37.846Z,22.50
2017-06-20T21:00:04.258Z,22.70
2017-06-20T21:02:30.699Z,22.60
2017-06-20T21:04:57.526Z,22.50
2017-06-20T21:07:23.957Z,22.40
2017-06-20T21:09:50.393Z,22.30
2017-06-20T21:12:16.864Z,22.20
2017-06-20T21:14:50.136Z,22.10
2017-06-20T21:17:17.322Z,21.90
2017-06-20T21:19:43.741Z,21.90
2017-06-20T21:22:10.197Z,21.90
2017-06-20T21:24:36.743Z,21.90
2017-06-20T21:27:03.213Z,21.80
2017-06-20T21:29:30.419Z,21.80
2017-06-20T21:31:56.825Z,21.60
2017-06-20T21:34:23.495Z,21.70
2017-06-20T21:36:49.961Z,21.60
2017-06-20T21:39:16.437Z,21.50
2017-06-20T21:41:42.880Z,21.30
2017-06-20T21:44:09.315Z,21.40
2017-06-20T21:46:36.799Z,21.40
2017-06-20T21:49:03.301Z,21.40
2017-06-20T21:51:29.728Z,21.40
2017-06-20T21:53:56.116Z,21.30
2017-06-20T21:56:22.546Z,21.30
2017-06-20T21:58:49.127Z,21.20
2017-06-20T22:01:15.528Z,21.20
2017-06-20T22:03:41.920Z,21.10
2017-06-20T22:06:08.324Z,21.00
2017-06-20T22:08:35.190Z,21.00
2017-06-20T22:11:01.580Z,20.80
2017-06-20T22:13:28.131Z,20.90
2017-06-20T22:15:54.544Z,20.80
2017-06-20T22:18:20.933Z,20.70
2017-06-20T22:20:47.329Z,20.80
2017-06-20T22:23:13.748Z,20.80
2017-06-20T22:25:40.149Z,20.80
2017-06-20T22:28:06.520Z,20.80
2017-06-20T22:30:32.904Z,20.60
2017-06-20T22:32:59.301Z,20.60
2017-06-20T22:35:25.725Z,20.50
2017-06-20T22:37:52.128Z,20.40
2017-06-20T22:40:18.540Z,20.40
2017-06-20T22:42:44.941Z,20.40
2017-06-20T22:45:11.361Z,20.20
2017-06-20T22:47:37.799Z,20.10
2017-06-20T22:50:04.179Z,20.00
2017-06-20T22:52:31.327Z,20.10
2017-06-20T22:54:58.480Z,20.00
2017-06-20T22:57:24.856Z,20.00
2017-06-20T22:59:51.248Z,20.00
2017-06-20T23:02:17.628Z,19.90
2017-06-20T23:04:44.128Z,19.80
2017-06-20T23:07:10.548Z,19.90
2017-06-20T23:09:36.977Z,19.90
2017-06-20T23:12:03.408Z,19.80
2017-06-20T23:14:29.847Z,19.70
2017-06-20T23:16:56.230Z,19.70
2017-06-20T23:19:22.683Z,19.60
2017-06-20T23:21:49.156Z,19.50
2017-06-20T23:24:15.558Z,19.40
2017-06-20T23:26:41.969Z,19.40
2017-06-20T23:29:08.399Z,19.40
2017-06-20T23:31:34.999Z,19.30
2017-06-20T23:34:01.527Z,19.10
2017-06-20T23:36:27.939Z,19.10
2017-06-20T23:38:54.339Z,19.10
2017-06-20T23:41:20.797Z,19.10
2017-06-20T23:43:47.200Z,19.00
2017-06-20T23:46:13.611Z,19.10
2017-06-20T23:48:40.016Z,19.10
2017-06-20T23:51:06.416Z,19.10
2017-06-20T23:53:32.824Z,18.90
2017-06-20T23:55:59.260Z,18.90
2017-06-20T23:58:26.364Z,18.70
